sensor_id;sensor_type;location;lat;lon;timestamp;pressure;altitude;pressure_sealevel;temperature;humidity
30598;BME280;17365;48.878;8.334;2024-03-08T00:00:27;99973.44;;;4.45;100.00
30598;BME280;17365;48.878;8.334;2024-03-08T00:02:53;99972.47;;;4.42;100.00
30598;BME280;17365;48.878;8.334;2024-03-08T00:05:19;99968.00;;;4.33;100.00
30598;BME280;17365;48.878;8.334;2024-03-08T00:07:45;99974.63;;;4.25;100.00
30598;BME280;17365;48.878;8.334;2024-03-08T00:10:11;99967.78;;;4.24;100.00
30598;BME280;17365;48.878;8.334;2024-03-08T00:12:39;99954.25;;;4.31;100.00
30598;BME280;17365;48.878;8.334;2024-03-08T00:15:11;99962.56;;;4.21;100.00
30598;BME280;17365;48.878;8.334;2024-03-08T00:17:39;99949.19;;;3.99;100.00
30598;BME280;17365;48.878;8.334;2024-03-08T00:20:05;99950.50;;;4.18;100.00
30598;BME280;17365;48.878;8.334;2024-03-08T00:22:37;99956.56;;;4.20;100.00
30598;BME280;17365;48.878;8.334;2024-03-08T00:25:06;99950.69;;;4.26;100.00
30598;BME280;17365;48.878;8.334;2024-03-08T00:27:34;99945.81;;;3.69;100.00
30598;BME280;17365;48.878;8.334;2024-03-08T00:30:00;99954.00;;;3.87;100.00
30598;BME280;17365;48.878;8.334;2024-03-08T00:32:26;99946.66;;;4.01;100.00
30598;BME280;17365;48.878;8.334;2024-03-08T00:34:55;99937.53;;;4.12;100.00
30598;BME280;17365;48.878;8.334;2024-03-08T00:37:21;99951.44;;;3.87;100.00
30598;BME280;17365;48.878;8.334;2024-03-08T00:39:51;99941.19;;;3.87;100.00
30598;BME280;17365;48.878;8.334;2024-03-08T00:42:17;99935.53;;;4.00;100.00
30598;BME280;17365;48.878;8.334;2024-03-08T00:44:43;99932.38;;;4.11;100.00
30598;BME280;17365;48.878;8.334;2024-03-08T00:47:08;99932.47;;;4.15;100.00
30598;BME280;17365;48.878;8.334;2024-03-08T00:49:34;99931.63;;;4.16;100.00
30598;BME280;17365;48.878;8.334;2024-03-08T00:52:01;99927.28;;;4.14;100.00
30598;BME280;17365;48.878;8.334;2024-03-08T00:54:27;99923.69;;;4.07;100.00
30598;BME280;17365;48.878;8.334;2024-03-08T00:56:52;99930.66;;;3.76;100.00
30598;BME280;17365;48.878;8.334;2024-03-08T00:59:17;99930.97;;;3.89;100.00
30598;BME280;17365;48.878;8.334;2024-03-08T01:01:43;99925.78;;;3.87;100.00
30598;BME280;17365;48.878;8.334;2024-03-08T01:04:09;99918.84;;;3.85;100.00
30598;BME280;17365;48.878;8.334;2024-03-08T01:06:34;99914.97;;;3.99;100.00
30598;BME280;17365;48.878;8.334;2024-03-08T01:09:00;99911.63;;;4.03;100.00
30598;BME280;17365;48.878;8.334;2024-03-08T01:11:25;99913.22;;;3.98;100.00
30598;BME280;17365;48.878;8.334;2024-03-08T01:13:50;99919.78;;;3.87;100.00
30598;BME280;17365;48.878;8.334;2024-03-08T01:16:16;99912.69;;;3.76;100.00
30598;BME280;17365;48.878;8.334;2024-03-08T01:18:42;99908.09;;;3.98;100.00
30598;BME280;17365;48.878;8.334;2024-03-08T01:21:08;99905.66;;;4.04;100.00
30598;BME280;17365;48.878;8.334;2024-03-08T01:23:33;99894.16;;;3.88;100.00
30598;BME280;17365;48.878;8.334;2024-03-08T01:25:59;99891.09;;;4.03;100.00
30598;BME280;17365;48.878;8.334;2024-03-08T01:28:25;99884.84;;;3.92;100.00
30598;BME280;17365;48.878;8.334;2024-03-08T01:30:52;99885.03;;;3.65;100.00
30598;BME280;17365;48.878;8.334;2024-03-08T01:33:24;99880.72;;;3.64;100.00
30598;BME280;17365;48.878;8.334;2024-03-08T01:35:51;99868.72;;;3.63;100.00
30598;BME280;17365;48.878;8.334;2024-03-08T01:38:16;99876.72;;;3.75;100.00
30598;BME280;17365;48.878;8.334;2024-03-08T01:40:41;99874.38;;;3.84;100.00
30598;BME280;17365;48.878;8.334;2024-03-08T01:43:21;99868.59;;;3.58;100.00
30598;BME280;17365;48.878;8.334;2024-03-08T01:45:48;99868.34;;;3.82;100.00
30598;BME280;17365;48.878;8.334;2024-03-08T01:48:17;99860.41;;;3.73;100.00
30598;BME280;17365;48.878;8.334;2024-03-08T01:50:49;99855.84;;;3.61;100.00
30598;BME280;17365;48.878;8.334;2024-03-08T01:53:14;99859.69;;;3.77;100.00
30598;BME280;17365;48.878;8.334;2024-03-08T01:55:44;99851.00;;;3.73;100.00
30598;BME280;17365;48.878;8.334;2024-03-08T01:58:13;99841.56;;;3.71;100.00
30598;BME280;17365;48.878;8.334;2024-03-08T02:00:42;99843.16;;;3.66;100.00
30598;BME280;17365;48.878;8.334;2024-03-08T02:03:09;99829.50;;;3.67;100.00
30598;BME280;17365;48.878;8.334;2024-03-08T02:05:34;99830.19;;;3.61;100.00
30598;BME280;17365;48.878;8.334;2024-03-08T02:08:01;99824.41;;;3.68;100.00
30598;BME280;17365;48.878;8.334;2024-03-08T02:10:27;99827.75;;;3.66;100.00
30598;BME280;17365;48.878;8.334;2024-03-08T02:12:53;99823.81;;;3.45;100.00
30598;BME280;17365;48.878;8.334;2024-03-08T02:15:18;99814.59;;;3.52;100.00
30598;BME280;17365;48.878;8.334;2024-03-08T02:17:44;99817.31;;;3.58;100.00
30598;BME280;17365;48.878;8.334;2024-03-08T02:20:10;99822.41;;;3.57;100.00
30598;BME280;17365;48.878;8.334;2024-03-08T02:22:39;99818.06;;;3.54;100.00
30598;BME280;17365;48.878;8.334;2024-03-08T02:25:05;99813.22;;;3.65;100.00
30598;BME280;17365;48.878;8.334;2024-03-08T02:27:31;99820.81;;;3.62;100.00
30598;BME280;17365;48.878;8.334;2024-03-08T02:29:57;99823.56;;;3.69;100.00
30598;BME280;17365;48.878;8.334;2024-03-08T02:32:25;99816.50;;;3.61;100.00
30598;BME280;17365;48.878;8.334;2024-03-08T02:34:50;99809.00;;;3.68;100.00
30598;BME280;17365;48.878;8.334;2024-03-08T02:37:16;99802.13;;;3.66;100.00
30598;BME280;17365;48.878;8.334;2024-03-08T02:39:43;99808.13;;;3.68;100.00
30598;BME280;17365;48.878;8.334;2024-03-08T02:42:09;99802.19;;;3.69;100.00
30598;BME280;17365;48.878;8.334;2024-03-08T02:44:34;99798.72;;;3.67;100.00
30598;BME280;17365;48.878;8.334;2024-03-08T02:47:00;99792.56;;;3.60;100.00
30598;BME280;17365;48.878;8.334;2024-03-08T02:49:26;99803.53;;;3.55;100.00
30598;BME280;17365;48.878;8.334;2024-03-08T02:51:54;99795.44;;;3.39;100.00
30598;BME280;17365;48.878;8.334;2024-03-08T02:54:21;99797.59;;;3.56;100.00
30598;BME280;17365;48.878;8.334;2024-03-08T02:56:46;99794.16;;;3.55;100.00
30598;BME280;17365;48.878;8.334;2024-03-08T02:59:12;99793.72;;;3.38;100.00
30598;BME280;17365;48.878;8.334;2024-03-08T03:01:38;99785.34;;;3.45;100.00
30598;BME280;17365;48.878;8.334;2024-03-08T03:04:04;99787.81;;;3.41;100.00
30598;BME280;17365;48.878;8.334;2024-03-08T03:06:29;99779.84;;;3.30;100.00
30598;BME280;17365;48.878;8.334;2024-03-08T03:08:55;99787.69;;;3.36;100.00
30598;BME280;17365;48.878;8.334;2024-03-08T03:11:22;99781.94;;;3.45;100.00
30598;BME280;17365;48.878;8.334;2024-03-08T03:13:47;99780.44;;;3.20;100.00
30598;BME280;17365;48.878;8.334;2024-03-08T03:16:17;99776.47;;;3.31;100.00
30598;BME280;17365;48.878;8.334;2024-03-08T03:18:44;99773.19;;;3.38;100.00
30598;BME280;17365;48.878;8.334;2024-03-08T03:21:09;99766.06;;;3.27;100.00
30598;BME280;17365;48.878;8.334;2024-03-08T03:23:34;99768.81;;;3.33;100.00
30598;BME280;17365;48.878;8.334;2024-03-08T03:26:00;99763.34;;;3.19;100.00
30598;BME280;17365;48.878;8.334;2024-03-08T03:28:27;99765.75;;;3.14;100.00
30598;BME280;17365;48.878;8.334;2024-03-08T03:30:53;99751.22;;;3.13;100.00
30598;BME280;17365;48.878;8.334;2024-03-08T03:33:18;99757.44;;;3.23;100.00
30598;BME280;17365;48.878;8.334;2024-03-08T03:35:44;99752.13;;;3.15;100.00
30598;BME280;17365;48.878;8.334;2024-03-08T03:38:09;99751.38;;;3.19;100.00
30598;BME280;17365;48.878;8.334;2024-03-08T03:40:36;99736.47;;;3.05;100.00
30598;BME280;17365;48.878;8.334;2024-03-08T03:43:03;99742.53;;;3.07;100.00
30598;BME280;17365;48.878;8.334;2024-03-08T03:45:29;99736.19;;;2.94;100.00
30598;BME280;17365;48.878;8.334;2024-03-08T03:47:54;99744.13;;;3.03;100.00
30598;BME280;17365;48.878;8.334;2024-03-08T03:50:20;99738.97;;;3.02;100.00
30598;BME280;17365;48.878;8.334;2024-03-08T03:52:46;99742.38;;;3.02;100.00
30598;BME280;17365;48.878;8.334;2024-03-08T03:55:13;99736.47;;;3.05;100.00
30598;BME280;17365;48.878;8.334;2024-03-08T03:57:39;99737.41;;;3.07;100.00
30598;BME280;17365;48.878;8.334;2024-03-08T04:00:05;99728.94;;;3.11;100.00
30598;BME280;17365;48.878;8.334;2024-03-08T04:02:31;99733.19;;;3.09;100.00
30598;BME280;17365;48.878;8.334;2024-03-08T04:04:56;99732.19;;;3.04;100.00
30598;BME280;17365;48.878;8.334;2024-03-08T04:07:22;99729.72;;;3.07;100.00
30598;BME280;17365;48.878;8.334;2024-03-08T04:09:47;99739.44;;;2.87;100.00
30598;BME280;17365;48.878;8.334;2024-03-08T04:12:13;99732.19;;;3.04;100.00
30598;BME280;17365;48.878;8.334;2024-03-08T04:14:42;99733.69;;;2.96;100.00
30598;BME280;17365;48.878;8.334;2024-03-08T04:17:07;99732.97;;;3.01;100.00
30598;BME280;17365;48.878;8.334;2024-03-08T04:19:34;99726.84;;;2.95;100.00
30598;BME280;17365;48.878;8.334;2024-03-08T04:22:00;99725.25;;;3.00;100.00
30598;BME280;17365;48.878;8.334;2024-03-08T04:24:26;99721.09;;;3.05;100.00
30598;BME280;17365;48.878;8.334;2024-03-08T04:26:51;99713.31;;;3.00;100.00
30598;BME280;17365;48.878;8.334;2024-03-08T04:29:17;99716.53;;;2.93;100.00
30598;BME280;17365;48.878;8.334;2024-03-08T04:31:42;99711.38;;;2.91;100.00
30598;BME280;17365;48.878;8.334;2024-03-08T04:34:07;99719.81;;;2.87;100.00
30598;BME280;17365;48.878;8.334;2024-03-08T04:36:34;99700.19;;;2.88;100.00
30598;BME280;17365;48.878;8.334;2024-03-08T04:38:59;99712.22;;;2.92;100.00
30598;BME280;17365;48.878;8.334;2024-03-08T04:41:24;99700.06;;;2.83;100.00
30598;BME280;17365;48.878;8.334;2024-03-08T04:43:50;99705.06;;;2.79;100.00
30598;BME280;17365;48.878;8.334;2024-03-08T04:46:15;99705.94;;;2.79;100.00
30598;BME280;17365;48.878;8.334;2024-03-08T04:48:41;99700.97;;;2.85;100.00
30598;BME280;17365;48.878;8.334;2024-03-08T04:51:08;99702.78;;;2.89;100.00
30598;BME280;17365;48.878;8.334;2024-03-08T04:53:34;99701.16;;;2.93;100.00
30598;BME280;17365;48.878;8.334;2024-03-08T04:56:00;99698.25;;;2.79;100.00
30598;BME280;17365;48.878;8.334;2024-03-08T04:58:28;99702.84;;;2.92;100.00
30598;BME280;17365;48.878;8.334;2024-03-08T05:00:54;99704.44;;;2.87;100.00
30598;BME280;17365;48.878;8.334;2024-03-08T05:03:20;99698.72;;;2.98;100.00
30598;BME280;17365;48.878;8.334;2024-03-08T05:05:46;99702.09;;;2.95;100.00
30598;BME280;17365;48.878;8.334;2024-03-08T05:08:11;99697.66;;;2.89;100.00
30598;BME280;17365;48.878;8.334;2024-03-08T05:10:36;99694.13;;;2.84;100.00
30598;BME280;17365;48.878;8.334;2024-03-08T05:13:03;99695.75;;;2.82;100.00
30598;BME280;17365;48.878;8.334;2024-03-08T05:15:29;99698.50;;;2.88;100.00
30598;BME280;17365;48.878;8.334;2024-03-08T05:17:54;99699.00;;;2.75;100.00
30598;BME280;17365;48.878;8.334;2024-03-08T05:20:22;99694.38;;;2.62;100.00
30598;BME280;17365;48.878;8.334;2024-03-08T05:22:47;99692.97;;;2.73;100.00
30598;BME280;17365;48.878;8.334;2024-03-08T05:25:13;99693.91;;;2.77;100.00
30598;BME280;17365;48.878;8.334;2024-03-08T05:27:39;99689.06;;;2.87;100.00
30598;BME280;17365;48.878;8.334;2024-03-08T05:30:05;99693.31;;;2.87;100.00
30598;BME280;17365;48.878;8.334;2024-03-08T05:32:32;99682.19;;;2.85;100.00
30598;BME280;17365;48.878;8.334;2024-03-08T05:34:57;99692.31;;;2.82;100.00
30598;BME280;17365;48.878;8.334;2024-03-08T05:37:24;99691.38;;;2.78;100.00
30598;BME280;17365;48.878;8.334;2024-03-08T05:39:49;99686.44;;;2.84;100.00
30598;BME280;17365;48.878;8.334;2024-03-08T05:42:14;99687.06;;;2.76;100.00
30598;BME280;17365;48.878;8.334;2024-03-08T05:44:39;99694.16;;;2.86;100.00
30598;BME280;17365;48.878;8.334;2024-03-08T05:47:06;99690.44;;;2.75;100.00
30598;BME280;17365;48.878;8.334;2024-03-08T05:49:32;99687.97;;;2.78;100.00
30598;BME280;17365;48.878;8.334;2024-03-08T05:51:57;99683.78;;;2.81;100.00
30598;BME280;17365;48.878;8.334;2024-03-08T05:54:23;99692.22;;;2.77;100.00
30598;BME280;17365;48.878;8.334;2024-03-08T05:56:51;99684.72;;;2.83;100.00
30598;BME280;17365;48.878;8.334;2024-03-08T05:59:18;99690.63;;;2.82;100.00
30598;BME280;17365;48.878;8.334;2024-03-08T06:01:43;99684.78;;;2.86;100.00
30598;BME280;17365;48.878;8.334;2024-03-08T06:04:09;99686.47;;;2.86;100.00
30598;BME280;17365;48.878;8.334;2024-03-08T06:06:36;99685.31;;;2.75;100.00
30598;BME280;17365;48.878;8.334;2024-03-08T06:09:02;99677.47;;;2.69;100.00
30598;BME280;17365;48.878;8.334;2024-03-08T06:11:34;99687.09;;;2.77;100.00
30598;BME280;17365;48.878;8.334;2024-03-08T06:13:59;99686.38;;;2.83;100.00
30598;BME280;17365;48.878;8.334;2024-03-08T06:16:26;99679.47;;;2.80;100.00
30598;BME280;17365;48.878;8.334;2024-03-08T06:18:56;99679.66;;;2.86;100.00
30598;BME280;17365;48.878;8.334;2024-03-08T06:21:22;99679.59;;;2.83;100.00
30598;BME280;17365;48.878;8.334;2024-03-08T06:23:48;99681.53;;;2.93;100.00
30598;BME280;17365;48.878;8.334;2024-03-08T06:26:13;99682.25;;;2.88;100.00
30598;BME280;17365;48.878;8.334;2024-03-08T06:28:38;99683.28;;;2.95;100.00
30598;BME280;17365;48.878;8.334;2024-03-08T06:31:04;99679.81;;;2.94;100.00
30598;BME280;17365;48.878;8.334;2024-03-08T06:33:29;99684.31;;;3.03;100.00
30598;BME280;17365;48.878;8.334;2024-03-08T06:35:57;99681.94;;;3.09;100.00
30598;BME280;17365;48.878;8.334;2024-03-08T06:38:26;99682.97;;;3.17;100.00
30598;BME280;17365;48.878;8.334;2024-03-08T06:40:51;99687.31;;;3.19;100.00
30598;BME280;17365;48.878;8.334;2024-03-08T06:43:17;99686.19;;;3.08;100.00
30598;BME280;17365;48.878;8.334;2024-03-08T06:45:47;99681.19;;;3.14;100.00
30598;BME280;17365;48.878;8.334;2024-03-08T06:48:17;99676.41;;;3.28;100.00
30598;BME280;17365;48.878;8.334;2024-03-08T06:50:47;99683.88;;;3.19;100.00
30598;BME280;17365;48.878;8.334;2024-03-08T06:53:13;99674.19;;;3.42;100.00
30598;BME280;17365;48.878;8.334;2024-03-08T06:55:40;99681.38;;;3.22;100.00
30598;BME280;17365;48.878;8.334;2024-03-08T06:58:05;99672.28;;;3.35;100.00
30598;BME280;17365;48.878;8.334;2024-03-08T07:00:35;99674.44;;;3.53;100.00
30598;BME280;17365;48.878;8.334;2024-03-08T07:03:01;99671.28;;;3.64;100.00
30598;BME280;17365;48.878;8.334;2024-03-08T07:05:28;99675.38;;;3.58;100.00
30598;BME280;17365;48.878;8.334;2024-03-08T07:07:55;99671.19;;;3.61;100.00
30598;BME280;17365;48.878;8.334;2024-03-08T07:10:22;99669.88;;;3.78;100.00
30598;BME280;17365;48.878;8.334;2024-03-08T07:12:49;99662.41;;;3.89;100.00
30598;BME280;17365;48.878;8.334;2024-03-08T07:15:15;99659.19;;;3.99;100.00
30598;BME280;17365;48.878;8.334;2024-03-08T07:17:41;99656.53;;;3.96;100.00
30598;BME280;17365;48.878;8.334;2024-03-08T07:20:10;99663.75;;;4.13;100.00
30598;BME280;17365;48.878;8.334;2024-03-08T07:22:37;99661.38;;;4.22;100.00
30598;BME280;17365;48.878;8.334;2024-03-08T07:25:05;99663.75;;;4.13;100.00
30598;BME280;17365;48.878;8.334;2024-03-08T07:27:33;99651.38;;;4.37;100.00
30598;BME280;17365;48.878;8.334;2024-03-08T07:29:59;99658.06;;;4.29;100.00
30598;BME280;17365;48.878;8.334;2024-03-08T07:32:25;99652.50;;;4.51;100.00
30598;BME280;17365;48.878;8.334;2024-03-08T07:34:54;99656.88;;;4.55;100.00
30598;BME280;17365;48.878;8.334;2024-03-08T07:37:20;99656.59;;;4.42;100.00
30598;BME280;17365;48.878;8.334;2024-03-08T07:39:50;99651.22;;;4.75;100.00
30598;BME280;17365;48.878;8.334;2024-03-08T07:42:15;99648.97;;;4.93;100.00
30598;BME280;17365;48.878;8.334;2024-03-08T07:44:42;99644.69;;;4.93;100.00
30598;BME280;17365;48.878;8.334;2024-03-08T07:47:07;99644.88;;;5.04;100.00
30598;BME280;17365;48.878;8.334;2024-03-08T07:49:35;99642.16;;;4.95;100.00
30598;BME280;17365;48.878;8.334;2024-03-08T07:52:00;99634.72;;;5.10;100.00
30598;BME280;17365;48.878;8.334;2024-03-08T07:54:25;99631.41;;;5.19;100.00
30598;BME280;17365;48.878;8.334;2024-03-08T07:56:51;99631.53;;;5.28;100.00
30598;BME280;17365;48.878;8.334;2024-03-08T07:59:17;99634.13;;;5.30;100.00
30598;BME280;17365;48.878;8.334;2024-03-08T08:01:42;99622.28;;;5.41;100.00
30598;BME280;17365;48.878;8.334;2024-03-08T08:04:09;99624.63;;;5.22;100.00
30598;BME280;17365;48.878;8.334;2024-03-08T08:06:40;99619.56;;;5.30;100.00
30598;BME280;17365;48.878;8.334;2024-03-08T08:09:08;99620.75;;;5.52;100.00
30598;BME280;17365;48.878;8.334;2024-03-08T08:11:41;99619.28;;;5.71;100.00
30598;BME280;17365;48.878;8.334;2024-03-08T08:14:08;99625.91;;;5.53;100.00
30598;BME280;17365;48.878;8.334;2024-03-08T08:16:35;99615.69;;;5.58;100.00
30598;BME280;17365;48.878;8.334;2024-03-08T08:19:01;99621.22;;;5.26;100.00
30598;BME280;17365;48.878;8.334;2024-03-08T08:21:28;99610.38;;;5.46;100.00
30598;BME280;17365;48.878;8.334;2024-03-08T08:23:54;99614.97;;;5.68;100.00
30598;BME280;17365;48.878;8.334;2024-03-08T08:26:19;99617.06;;;5.94;100.00
30598;BME280;17365;48.878;8.334;2024-03-08T08:28:46;99617.94;;;5.97;100.00
30598;BME280;17365;48.878;8.334;2024-03-08T08:31:11;99616.03;;;5.82;100.00
30598;BME280;17365;48.878;8.334;2024-03-08T08:33:38;99607.03;;;6.18;100.00
30598;BME280;17365;48.878;8.334;2024-03-08T08:36:03;99608.97;;;6.37;100.00
30598;BME280;17365;48.878;8.334;2024-03-08T08:38:29;99608.13;;;6.38;100.00
30598;BME280;17365;48.878;8.334;2024-03-08T08:40:54;99604.19;;;5.94;100.00
30598;BME280;17365;48.878;8.334;2024-03-08T08:43:19;99607.84;;;6.12;100.00
30598;BME280;17365;48.878;8.334;2024-03-08T08:45:49;99600.78;;;5.99;100.00
30598;BME280;17365;48.878;8.334;2024-03-08T08:48:15;99605.94;;;5.99;100.00
30598;BME280;17365;48.878;8.334;2024-03-08T08:50:41;99605.78;;;5.89;100.00
30598;BME280;17365;48.878;8.334;2024-03-08T08:53:06;99594.84;;;6.03;100.00
30598;BME280;17365;48.878;8.334;2024-03-08T08:55:32;99589.97;;;6.29;100.00
30598;BME280;17365;48.878;8.334;2024-03-08T08:57:58;99587.31;;;6.20;100.00
30598;BME280;17365;48.878;8.334;2024-03-08T09:00:23;99582.50;;;6.52;100.00
30598;BME280;17365;48.878;8.334;2024-03-08T09:02:52;99578.31;;;6.65;100.00
30598;BME280;17365;48.878;8.334;2024-03-08T09:05:18;99579.25;;;6.71;100.00
30598;BME280;17365;48.878;8.334;2024-03-08T09:07:44;99577.75;;;7.01;100.00
30598;BME280;17365;48.878;8.334;2024-03-08T09:10:12;99578.56;;;6.97;100.00
30598;BME280;17365;48.878;8.334;2024-03-08T09:12:39;99563.28;;;7.24;100.00
30598;BME280;17365;48.878;8.334;2024-03-08T09:15:05;99569.28;;;7.23;100.00
30598;BME280;17365;48.878;8.334;2024-03-08T09:17:39;99560.88;;;7.49;100.00
30598;BME280;17365;48.878;8.334;2024-03-08T09:20:10;99562.41;;;7.21;98.21
30598;BME280;17365;48.878;8.334;2024-03-08T09:22:35;99564.25;;;7.40;99.29
30598;BME280;17365;48.878;8.334;2024-03-08T09:25:01;99557.44;;;7.54;98.45
30598;BME280;17365;48.878;8.334;2024-03-08T09:27:27;99551.41;;;7.48;97.73
30598;BME280;17365;48.878;8.334;2024-03-08T09:29:53;99560.00;;;7.48;93.90
30598;BME280;17365;48.878;8.334;2024-03-08T09:32:18;99549.75;;;7.64;92.44
30598;BME280;17365;48.878;8.334;2024-03-08T09:34:43;99552.34;;;7.68;92.64
30598;BME280;17365;48.878;8.334;2024-03-08T09:37:09;99551.59;;;7.94;92.62
30598;BME280;17365;48.878;8.334;2024-03-08T09:39:34;99540.38;;;7.87;90.85
30598;BME280;17365;48.878;8.334;2024-03-08T09:42:01;99547.28;;;8.00;91.10
30598;BME280;17365;48.878;8.334;2024-03-08T09:44:26;99550.78;;;8.07;91.24
30598;BME280;17365;48.878;8.334;2024-03-08T09:46:54;99539.56;;;7.97;91.76
30598;BME280;17365;48.878;8.334;2024-03-08T09:49:20;99531.81;;;8.02;89.70
30598;BME280;17365;48.878;8.334;2024-03-08T09:51:45;99523.19;;;8.03;90.27
30598;BME280;17365;48.878;8.334;2024-03-08T09:54:11;99524.09;;;8.18;91.10
30598;BME280;17365;48.878;8.334;2024-03-08T09:56:38;99512.91;;;8.16;89.13
30598;BME280;17365;48.878;8.334;2024-03-08T09:59:08;99520.66;;;8.26;87.08
30598;BME280;17365;48.878;8.334;2024-03-08T10:01:53;99511.09;;;7.91;86.91
30598;BME280;17365;48.878;8.334;2024-03-08T10:04:22;99505.13;;;8.07;89.06
30598;BME280;17365;48.878;8.334;2024-03-08T10:06:48;99502.56;;;8.09;86.79
30598;BME280;17365;48.878;8.334;2024-03-08T10:09:14;99505.97;;;7.94;86.40
30598;BME280;17365;48.878;8.334;2024-03-08T10:11:42;99499.13;;;8.17;86.97
30598;BME280;17365;48.878;8.334;2024-03-08T10:14:09;99510.31;;;8.13;86.65
30598;BME280;17365;48.878;8.334;2024-03-08T10:16:34;99500.84;;;8.15;87.19
30598;BME280;17365;48.878;8.334;2024-03-08T10:19:00;99491.38;;;8.25;88.85
30598;BME280;17365;48.878;8.334;2024-03-08T10:21:25;99499.13;;;8.33;87.46
30598;BME280;17365;48.878;8.334;2024-03-08T10:23:51;99494.84;;;8.30;86.38
30598;BME280;17365;48.878;8.334;2024-03-08T10:26:16;99495.75;;;8.38;86.20
30598;BME280;17365;48.878;8.334;2024-03-08T10:28:47;99485.38;;;8.35;85.64
30598;BME280;17365;48.878;8.334;2024-03-08T10:31:16;99478.50;;;8.40;86.15
30598;BME280;17365;48.878;8.334;2024-03-08T10:33:42;99476.75;;;8.30;84.65
30598;BME280;17365;48.878;8.334;2024-03-08T10:36:08;99476.75;;;8.38;86.02
30598;BME280;17365;48.878;8.334;2024-03-08T10:38:41;99469.88;;;8.64;84.67
30598;BME280;17365;48.878;8.334;2024-03-08T10:41:08;99479.34;;;8.35;83.13
30598;BME280;17365;48.878;8.334;2024-03-08T10:43:52;99469.88;;;8.58;83.73
30598;BME280;17365;48.878;8.334;2024-03-08T10:46:41;99478.47;;;8.19;84.75
30598;BME280;17365;48.878;8.334;2024-03-08T10:49:16;99469.88;;;8.49;84.14
30598;BME280;17365;48.878;8.334;2024-03-08T10:51:42;99476.78;;;8.41;82.65
30598;BME280;17365;48.878;8.334;2024-03-08T10:54:09;99469.03;;;8.53;83.44
30598;BME280;17365;48.878;8.334;2024-03-08T10:56:35;99473.34;;;8.50;83.79
30598;BME280;17365;48.878;8.334;2024-03-08T10:59:01;99474.19;;;8.58;85.27
30598;BME280;17365;48.878;8.334;2024-03-08T11:01:27;99464.72;;;8.35;84.18
30598;BME280;17365;48.878;8.334;2024-03-08T11:03:52;99463.84;;;8.35;82.96
30598;BME280;17365;48.878;8.334;2024-03-08T11:09:02;99463.84;;;8.47;84.17
30598;BME280;17365;48.878;8.334;2024-03-08T11:11:32;99469.03;;;8.41;84.32
30598;BME280;17365;48.878;8.334;2024-03-08T11:13:58;99463.84;;;8.44;83.79
30598;BME280;17365;48.878;8.334;2024-03-08T11:18:55;99459.53;;;8.37;84.22
30598;BME280;17365;48.878;8.334;2024-03-08T11:21:25;99456.09;;;8.56;84.98
30598;BME280;17365;48.878;8.334;2024-03-08T11:24:12;99456.97;;;8.35;85.58
30598;BME280;17365;48.878;8.334;2024-03-08T11:26:39;99461.25;;;8.49;84.46
30598;BME280;17365;48.878;8.334;2024-03-08T11:32:12;99448.34;;;8.53;84.42
30598;BME280;17365;48.878;8.334;2024-03-08T11:34:41;99443.19;;;8.62;84.83
30598;BME280;17365;48.878;8.334;2024-03-08T11:37:18;99442.31;;;8.42;83.13
30598;BME280;17365;48.878;8.334;2024-03-08T11:39:48;99443.19;;;8.55;83.19
30598;BME280;17365;48.878;8.334;2024-03-08T11:42:15;99426.81;;;8.43;84.16
30598;BME280;17365;48.878;8.334;2024-03-08T11:44:42;99423.34;;;8.58;83.67
30598;BME280;17365;48.878;8.334;2024-03-08T11:47:10;99421.63;;;8.54;83.61
30598;BME280;17365;48.878;8.334;2024-03-08T11:49:36;99433.66;;;8.70;84.21
30598;BME280;17365;48.878;8.334;2024-03-08T11:52:01;99427.63;;;8.76;82.44
30598;BME280;17365;48.878;8.334;2024-03-08T11:54:28;99409.50;;;8.90;81.46
30598;BME280;17365;48.878;8.334;2024-03-08T11:56:55;99418.09;;;9.01;79.80
30598;BME280;17365;48.878;8.334;2024-03-08T11:59:26;99410.41;;;8.60;81.02
30598;BME280;17365;48.878;8.334;2024-03-08T12:02:05;99403.47;;;8.83;81.64
30598;BME280;17365;48.878;8.334;2024-03-08T12:04:32;99405.25;;;8.67;81.15
30598;BME280;17365;48.878;8.334;2024-03-08T12:07:00;99407.84;;;8.64;80.91
30598;BME280;17365;48.878;8.334;2024-03-08T12:09:27;99398.31;;;8.71;81.44
30598;BME280;17365;48.878;8.334;2024-03-08T12:11:54;99394.06;;;8.64;82.43
30598;BME280;17365;48.878;8.334;2024-03-08T12:14:19;99384.59;;;8.61;81.62
30598;BME280;17365;48.878;8.334;2024-03-08T12:16:46;99386.19;;;8.94;80.83
30598;BME280;17365;48.878;8.334;2024-03-08T12:19:11;99378.53;;;8.58;81.24
30598;BME280;17365;48.878;8.334;2024-03-08T12:21:37;99390.63;;;8.50;81.72
30598;BME280;17365;48.878;8.334;2024-03-08T12:24:07;99384.59;;;8.48;81.99
30598;BME280;17365;48.878;8.334;2024-03-08T12:26:39;99394.03;;;8.59;81.78
30598;BME280;17365;48.878;8.334;2024-03-08T12:29:25;99388.00;;;8.75;81.38
30598;BME280;17365;48.878;8.334;2024-03-08T12:31:54;99383.72;;;8.58;81.33
30598;BME280;17365;48.878;8.334;2024-03-08T12:34:21;99375.06;;;8.71;81.11
30598;BME280;17365;48.878;8.334;2024-03-08T12:36:47;99377.63;;;8.80;81.71
30598;BME280;17365;48.878;8.334;2024-03-08T12:39:15;99363.84;;;8.84;82.13
30598;BME280;17365;48.878;8.334;2024-03-08T12:41:41;99361.19;;;8.99;81.12
30598;BME280;17365;48.878;8.334;2024-03-08T12:44:07;99354.31;;;8.83;79.98
30598;BME280;17365;48.878;8.334;2024-03-08T12:46:37;99346.63;;;8.66;81.05
30598;BME280;17365;48.878;8.334;2024-03-08T12:49:08;99344.00;;;8.88;81.61
30598;BME280;17365;48.878;8.334;2024-03-08T12:51:34;99346.50;;;9.09;78.36
30598;BME280;17365;48.878;8.334;2024-03-08T12:54:00;99337.97;;;8.81;77.19
30598;BME280;17365;48.878;8.334;2024-03-08T12:56:33;99349.22;;;8.69;77.98
30598;BME280;17365;48.878;8.334;2024-03-08T12:58:59;99341.47;;;8.59;79.21
30598;BME280;17365;48.878;8.334;2024-03-08T13:01:26;99337.19;;;8.62;79.03
30598;BME280;17365;48.878;8.334;2024-03-08T13:03:52;99335.38;;;8.81;79.35
30598;BME280;17365;48.878;8.334;2024-03-08T13:06:19;99333.66;;;8.79;79.42
30598;BME280;17365;48.878;8.334;2024-03-08T13:08:52;99319.88;;;8.78;79.39